createdAt,value
2018-09-21T00:00:32.631Z,100298.16
2018-09-21T00:03:02.704Z,100283.31
2018-09-21T00:05:32.840Z,100282.49
2018-09-21T00:08:02.942Z,100271.54
2018-09-21T00:10:33.096Z,100267.63
2018-09-21T00:13:03.190Z,100263.90
2018-09-21T00:15:33.326Z,100262.22
2018-09-21T00:18:03.355Z,100258.73
2018-09-21T00:20:33.467Z,100250.66
2018-09-21T00:23:03.532Z,100246.60
2018-09-21T00:25:33.685Z,100245.30
2018-09-21T00:28:03.830Z,100253.34
2018-09-21T00:30:33.970Z,100246.86
2018-09-21T00:33:04.123Z,100239.92
2018-09-21T00:35:34.182Z,100241.98
2018-09-21T00:38:04.338Z,100236.44
2018-09-21T00:40:34.504Z,100228.77
2018-09-21T00:43:04.676Z,100229.56
2018-09-21T00:45:34.789Z,100223.53
2018-09-21T00:48:04.870Z,100221.09
2018-09-21T00:50:35.022Z,100219.31
2018-09-21T00:53:05.122Z,100212.63
2018-09-21T00:55:35.239Z,100212.00
2018-09-21T00:58:05.369Z,100207.16
2018-09-21T01:00:35.491Z,100205.88
2018-09-21T01:03:05.560Z,100197.34
2018-09-21T01:05:35.711Z,100191.16
2018-09-21T01:08:05.876Z,100185.83
2018-09-21T01:10:35.996Z,100193.59
2018-09-21T01:13:06.083Z,100188.51
2018-09-21T01:15:36.217Z,100188.30
2018-09-21T01:18:06.397Z,100183.59
2018-09-21T01:20:36.515Z,100185.03
2018-09-21T01:23:06.695Z,100173.77
2018-09-21T01:25:36.773Z,100171.17
2018-09-21T01:28:06.837Z,100164.11
2018-09-21T01:30:36.885Z,100161.64
2018-09-21T01:33:06.542Z,100158.45
2018-09-21T01:35:36.925Z,100149.72
2018-09-21T01:38:07.202Z,100147.74
2018-09-21T01:40:37.347Z,100144.83
2018-09-21T01:43:07.530Z,100143.26
2018-09-21T01:45:37.640Z,100128.98
2018-09-21T01:48:07.771Z,100132.27
2018-09-21T01:50:37.871Z,100126.27
2018-09-21T01:53:07.976Z,100119.81
2018-09-21T01:55:38.225Z,100126.38
2018-09-21T01:58:08.328Z,100122.15
2018-09-21T02:00:38.492Z,100114.28
2018-09-21T02:03:08.658Z,100107.73
2018-09-21T02:05:38.794Z,100106.67
2018-09-21T02:08:08.874Z,100098.75
2018-09-21T02:10:39.029Z,100100.28
2018-09-21T02:13:09.241Z,100088.36
2018-09-21T02:15:39.334Z,100095.34
2018-09-21T02:18:09.496Z,100076.83
2018-09-21T02:20:39.630Z,100081.59
2018-09-21T02:23:09.725Z,100074.95
2018-09-21T02:25:39.798Z,100073.71
2018-09-21T02:28:09.852Z,100064.27
2018-09-21T02:30:40.056Z,100060.34
2018-09-21T02:33:10.148Z,100051.30
2018-09-21T02:35:40.330Z,100046.69
2018-09-21T02:38:10.389Z,100036.43
2018-09-21T02:40:40.518Z,100029.59
2018-09-21T02:43:10.662Z,100021.34
2018-09-21T02:45:40.739Z,100006.39
2018-09-21T02:48:10.846Z,100004.73
2018-09-21T02:50:40.959Z,100003.58
2018-09-21T02:53:11.060Z,100000.54
2018-09-21T02:55:41.152Z,99987.89
2018-09-21T02:58:11.215Z,99985.16
2018-09-21T03:00:41.532Z,99986.30
2018-09-21T03:03:11.596Z,99979.61
2018-09-21T03:05:41.797Z,99980.11
2018-09-21T03:08:11.894Z,99963.77
2018-09-21T03:10:41.993Z,99956.29
2018-09-21T03:13:12.057Z,99940.59
2018-09-21T03:15:42.143Z,99940.66
2018-09-21T03:18:12.198Z,99936.51
2018-09-21T03:20:42.319Z,99928.70
2018-09-21T03:23:12.435Z,99925.18
2018-09-21T03:25:42.516Z,99916.59
2018-09-21T03:28:12.535Z,99913.34
2018-09-21T03:30:42.638Z,99892.77
2018-09-21T03:33:12.676Z,99894.98
2018-09-21T03:35:42.753Z,99884.91
2018-09-21T03:38:12.823Z,99890.09
2018-09-21T03:40:42.995Z,99883.94
2018-09-21T03:43:13.124Z,99879.02
2018-09-21T03:45:43.243Z,99876.20
2018-09-21T03:48:13.344Z,99871.30
2018-09-21T03:50:43.418Z,99851.54
2018-09-21T03:53:13.505Z,99847.55
2018-09-21T03:55:43.608Z,99837.66
2018-09-21T03:58:13.651Z,99844.83
2018-09-21T04:00:43.722Z,99842.84
2018-09-21T04:03:13.785Z,99832.58
2018-09-21T04:05:43.952Z,99828.55
2018-09-21T04:08:14.045Z,99825.22
2018-09-21T04:10:44.165Z,99825.81
2018-09-21T04:13:14.245Z,99821.82
2018-09-21T04:15:44.416Z,99816.80
2018-09-21T04:18:14.528Z,99820.66
2018-09-21T04:20:44.644Z,99819.52
2018-09-21T04:23:14.741Z,99818.55
2018-09-21T04:25:44.852Z,99820.70
2018-09-21T04:28:14.912Z,99806.48
2018-09-21T04:30:45.022Z,99808.81
2018-09-21T04:33:15.133Z,99810.16
2018-09-21T04:35:45.253Z,99791.36
2018-09-21T04:38:15.311Z,99796.23
2018-09-21T04:40:45.399Z,99794.22
2018-09-21T04:43:15.608Z,99791.44
2018-09-21T04:45:45.852Z,99790.50
2018-09-21T04:48:16.129Z,99781.62
2018-09-21T04:50:46.247Z,99781.28
2018-09-21T04:53:16.352Z,99777.25
2018-09-21T04:55:46.499Z,99773.47
2018-09-21T04:58:16.563Z,99778.31
2018-09-21T05:00:46.680Z,99771.78
2018-09-21T05:03:16.716Z,99781.30
2018-09-21T05:05:46.838Z,99780.95
2018-09-21T05:08:16.918Z,99777.61
2018-09-21T05:10:47.094Z,99766.52
2018-09-21T05:13:17.192Z,99772.01
2018-09-21T05:15:47.399Z,99765.32
2018-09-21T05:18:17.536Z,99780.76
2018-09-21T05:20:47.688Z,99769.52
2018-09-21T05:23:17.768Z,99768.52
2018-09-21T05:25:47.914Z,99761.80
2018-09-21T05:28:18.037Z,99767.16
2018-09-21T05:30:48.135Z,99766.17
2018-09-21T05:33:18.275Z,99762.47
2018-09-21T05:35:48.401Z,99757.58
2018-09-21T05:38:18.468Z,99762.75
2018-09-21T05:40:48.543Z,99761.59
2018-09-21T05:43:18.610Z,99759.07
2018-09-21T05:45:48.724Z,99748.20
2018-09-21T05:48:18.832Z,99751.39
2018-09-21T05:50:49.135Z,99740.48
2018-09-21T05:53:19.263Z,99733.11
2018-09-21T05:55:49.601Z,99734.63
2018-09-21T05:58:19.727Z,99735.16
2018-09-21T06:00:49.899Z,99757.14
2018-09-21T06:03:20.091Z,99741.73
2018-09-21T06:05:51.358Z,99750.16
2018-09-21T06:08:21.436Z,99754.20
2018-09-21T06:10:51.534Z,99751.85
2018-09-21T06:13:21.633Z,99736.89
2018-09-21T06:15:51.790Z,99741.11
2018-09-21T06:18:21.855Z,99736.92
2018-09-21T06:20:52.007Z,99735.08
2018-09-21T06:23:22.084Z,99737.09
2018-09-21T06:25:52.176Z,99734.05
2018-09-21T06:28:22.235Z,99742.46
2018-09-21T06:30:52.378Z,99742.45
2018-09-21T06:33:22.532Z,99743.45
2018-09-21T06:35:52.639Z,99750.00
2018-09-21T06:38:22.775Z,99771.02
2018-09-21T06:40:53.320Z,99788.48
2018-09-21T06:43:23.422Z,99777.73
2018-09-21T06:45:53.545Z,99774.70
2018-09-21T06:48:23.651Z,99773.53
2018-09-21T06:50:53.822Z,99761.94
2018-09-21T06:53:23.870Z,99747.33
2018-09-21T06:55:53.954Z,99748.67
2018-09-21T06:58:24.022Z,99782.25
2018-09-21T07:00:54.276Z,99775.55
2018-09-21T07:03:24.360Z,99777.54
2018-09-21T07:05:54.610Z,99797.37
2018-09-21T07:08:24.709Z,99776.55
2018-09-21T07:10:54.816Z,99781.42
2018-09-21T07:13:24.916Z,99766.64
2018-09-21T07:15:55.217Z,99757.92
2018-09-21T07:18:25.295Z,99764.63
2018-09-21T07:20:55.501Z,99795.36
2018-09-21T07:23:25.663Z,99803.27
2018-09-21T07:25:55.865Z,99791.17
2018-09-21T07:28:26.678Z,99804.42
2018-09-21T07:30:56.857Z,99818.20
2018-09-21T07:33:27.106Z,99810.31
2018-09-21T07:35:57.351Z,99805.56
2018-09-21T07:38:27.472Z,99796.84
2018-09-21T07:40:57.684Z,99811.94
2018-09-21T07:43:27.805Z,99815.96
2018-09-21T07:45:57.965Z,99808.56
2018-09-21T07:48:28.041Z,99804.88
2018-09-21T07:50:58.201Z,99801.85
2018-09-21T07:53:28.492Z,99773.33
2018-09-21T07:55:58.639Z,99779.86
2018-09-21T07:58:28.806Z,99788.42
2018-09-21T08:00:58.984Z,99778.69
2018-09-21T08:03:29.059Z,99771.83
2018-09-21T08:05:59.231Z,99770.48
2018-09-21T08:08:29.705Z,99778.38
2018-09-21T08:10:59.866Z,99779.55
2018-09-21T08:13:29.984Z,99780.72
2018-09-21T08:16:05.052Z,99782.73
2018-09-21T08:18:36.053Z,99779.04
2018-09-21T08:21:06.276Z,99780.21
2018-09-21T08:23:36.467Z,99776.19
2018-09-21T08:26:06.763Z,99778.04
2018-09-21T08:28:36.994Z,99771.00
2018-09-21T08:31:07.236Z,99766.80
2018-09-21T08:33:37.345Z,99769.62
2018-09-21T08:36:07.482Z,99769.20
2018-09-21T08:38:38.509Z,99783.57
2018-09-21T08:41:08.860Z,99794.39
2018-09-21T08:43:39.015Z,99830.77
2018-09-21T08:46:09.135Z,99864.13
2018-09-21T08:48:39.206Z,99915.56
2018-09-21T08:51:09.347Z,99992.45
2018-09-21T08:53:39.551Z,100015.59
2018-09-21T08:56:09.785Z,100027.20
2018-09-21T08:58:39.958Z,100028.92
2018-09-21T09:01:10.115Z,100039.16
2018-09-21T09:03:40.219Z,100034.80
2018-09-21T09:06:10.477Z,100033.48
2018-09-21T09:08:40.603Z,100038.66
2018-09-21T09:11:10.808Z,100039.20
2018-09-21T09:13:40.918Z,100032.45
2018-09-21T09:16:11.087Z,100053.40
2018-09-21T09:18:41.155Z,100050.67
2018-09-21T09:21:11.282Z,100064.25
2018-09-21T09:23:41.450Z,100079.25
2018-09-21T09:26:11.505Z,100092.34
2018-09-21T09:28:41.608Z,100115.53
2018-09-21T09:31:11.745Z,100118.25
2018-09-21T09:33:41.830Z,100122.20
2018-09-21T09:36:11.912Z,100119.38
2018-09-21T09:38:42.141Z,100090.27
2018-09-21T09:41:12.309Z,100101.62
2018-09-21T09:43:42.401Z,100108.80
2018-09-21T09:46:12.479Z,100121.45
2018-09-21T09:48:42.573Z,100122.32
2018-09-21T09:51:12.768Z,100120.25
2018-09-21T09:53:43.016Z,100116.21
2018-09-21T09:56:13.139Z,100119.92
2018-09-21T09:58:43.489Z,100122.88
2018-09-21T10:01:13.574Z,100134.14
2018-09-21T10:03:43.757Z,100138.50
2018-09-21T10:06:13.884Z,100145.36
2018-09-21T10:08:44.013Z,100136.55
2018-09-21T10:11:14.092Z,100135.50
2018-09-21T10:13:44.149Z,100126.09
2018-09-21T10:16:14.290Z,100112.00
2018-09-21T10:18:44.361Z,100123.92
2018-09-21T10:21:14.611Z,100131.91
2018-09-21T10:23:44.725Z,100142.80
2018-09-21T10:26:14.766Z,100143.17
2018-09-21T10:28:44.962Z,100147.05
2018-09-21T10:31:15.023Z,100149.34
2018-09-21T10:33:45.308Z,100154.30
2018-09-21T10:36:15.394Z,100155.50
2018-09-21T10:38:45.530Z,100155.98
2018-09-21T10:41:15.788Z,100152.58
2018-09-21T10:43:46.126Z,100154.28
2018-09-21T10:46:16.272Z,100159.15
2018-09-21T10:48:46.417Z,100155.39
2018-09-21T10:51:16.582Z,100154.76
2018-09-21T10:53:46.675Z,100158.85
2018-09-21T10:56:16.796Z,100158.47
2018-09-21T10:58:46.969Z,100154.12
2018-09-21T11:01:17.092Z,100160.27
2018-09-21T11:03:47.253Z,100162.94
2018-09-21T11:06:17.538Z,100163.89
2018-09-21T11:08:47.673Z,100167.84
2018-09-21T11:11:17.739Z,100163.98
2018-09-21T11:13:47.847Z,100150.00
2018-09-21T11:16:18.018Z,100157.28
2018-09-21T11:18:48.086Z,100171.95
2018-09-21T11:21:18.219Z,100162.70
2018-09-21T11:23:48.508Z,100172.99
2018-09-21T11:26:18.595Z,100177.61
2018-09-21T11:28:48.675Z,100174.18
2018-09-21T11:31:18.743Z,100170.95
2018-09-21T11:33:48.910Z,100167.59
2018-09-21T11:36:19.004Z,100170.39
2018-09-21T11:38:49.188Z,100169.97
2018-09-21T11:41:19.733Z,100180.38
2018-09-21T11:43:49.837Z,100177.43
2018-09-21T11:46:19.925Z,100185.41
2018-09-21T11:48:50.035Z,100199.19
2018-09-21T11:51:20.199Z,100195.06
2018-09-21T11:53:50.238Z,100189.83
2018-09-21T11:56:20.348Z,100180.33
2018-09-21T11:58:50.502Z,100194.34
2018-09-21T12:01:23.656Z,100190.45
2018-09-21T12:03:54.075Z,100188.36
2018-09-21T12:06:24.149Z,100195.36
2018-09-21T12:08:54.207Z,100199.30
2018-09-21T12:11:24.299Z,100212.22
2018-09-21T12:13:54.463Z,100215.78
2018-09-21T12:16:24.563Z,100214.06
2018-09-21T12:18:54.599Z,100223.95
2018-09-21T12:21:24.697Z,100229.17
2018-09-21T12:23:54.865Z,100232.11
2018-09-21T12:26:25.009Z,100228.89
2018-09-21T12:28:55.132Z,100253.66
2018-09-21T12:31:25.264Z,100252.27
2018-09-21T12:33:55.379Z,100256.63
2018-09-21T12:36:25.496Z,100267.80
2018-09-21T12:38:55.576Z,100274.69
2018-09-21T12:41:25.700Z,100278.45
2018-09-21T12:43:55.846Z,100281.73
2018-09-21T12:46:29.366Z,100286.55
2018-09-21T12:49:02.539Z,100278.94
2018-09-21T12:51:33.583Z,100287.67
2018-09-21T12:54:03.677Z,100298.25
2018-09-21T12:56:33.991Z,100306.73
2018-09-21T12:59:04.165Z,100297.75
2018-09-21T13:01:34.325Z,100304.89
2018-09-21T13:04:04.480Z,100310.58
2018-09-21T13:06:34.664Z,100314.41
2018-09-21T13:09:05.661Z,100325.45
2018-09-21T13:11:35.846Z,100323.86
2018-09-21T13:14:06.125Z,100334.81
2018-09-21T13:16:36.319Z,100336.41
2018-09-21T13:19:06.518Z,100338.00
2018-09-21T13:21:36.708Z,100363.50
2018-09-21T13:24:07.189Z,100360.84
2018-09-21T13:26:37.424Z,100363.13
2018-09-21T13:29:07.595Z,100363.41
2018-09-21T13:31:37.778Z,100360.64
2018-09-21T13:34:07.845Z,100368.66
2018-09-21T13:36:38.032Z,100366.95
2018-09-21T13:39:11.729Z,100368.91
2018-09-21T13:41:41.891Z,100379.91
2018-09-21T13:44:12.073Z,100379.20
2018-09-21T13:46:42.258Z,100387.59
2018-09-21T13:49:12.391Z,100394.86
2018-09-21T13:51:42.470Z,100403.95
2018-09-21T13:54:12.579Z,100385.13
2018-09-21T13:56:42.731Z,100396.41
2018-09-21T13:59:12.910Z,100393.86
2018-09-21T14:01:43.015Z,100402.73
2018-09-21T14:04:13.085Z,100396.54
2018-09-21T14:06:43.214Z,100406.05
2018-09-21T14:09:13.294Z,100406.72
2018-09-21T14:11:43.390Z,100412.78
2018-09-21T14:14:13.543Z,100411.14
2018-09-21T14:16:43.629Z,100415.09
2018-09-21T14:19:13.807Z,100423.19
2018-09-21T14:21:43.906Z,100428.91
2018-09-21T14:24:14.151Z,100434.73
2018-09-21T14:26:44.372Z,100441.02
2018-09-21T14:29:14.463Z,100455.22
2018-09-21T14:31:44.607Z,100456.23
2018-09-21T14:34:14.725Z,100455.77
2018-09-21T14:36:44.787Z,100466.81
2018-09-21T14:39:14.891Z,100462.80
2018-09-21T14:41:45.062Z,100469.27
2018-09-21T14:44:15.149Z,100467.72
2018-09-21T14:46:45.307Z,100463.89
2018-09-21T14:49:15.412Z,100454.57
2018-09-21T14:51:45.557Z,100456.77
2018-09-21T14:54:15.679Z,100459.80
2018-09-21T14:56:45.800Z,100457.23
2018-09-21T14:59:15.965Z,100461.33
2018-09-21T15:01:46.179Z,100464.02
2018-09-21T15:04:16.359Z,100469.97
2018-09-21T15:06:46.684Z,100465.57
2018-09-21T15:09:16.961Z,100480.02
2018-09-21T15:11:47.330Z,100471.11
2018-09-21T15:14:17.558Z,100458.97
2018-09-21T15:16:47.753Z,100463.97
2018-09-21T15:19:17.881Z,100476.89
2018-09-21T15:21:48.198Z,100482.61
2018-09-21T15:24:18.456Z,100470.37
2018-09-21T15:26:48.620Z,100480.33
2018-09-21T15:29:21.525Z,100492.44
2018-09-21T15:31:51.688Z,100493.77
2018-09-21T15:34:21.892Z,100498.86
2018-09-21T15:36:52.127Z,100484.78
2018-09-21T15:39:22.313Z,100505.19
2018-09-21T15:41:52.724Z,100496.49
2018-09-21T15:44:23.064Z,100516.94
2018-09-21T15:46:53.298Z,100518.91
2018-09-21T15:49:23.634Z,100512.09
2018-09-21T15:51:53.909Z,100509.20
2018-09-21T15:54:24.089Z,100516.50
2018-09-21T15:56:54.300Z,100516.20
2018-09-21T15:59:24.868Z,100523.05
2018-09-21T16:01:55.091Z,100527.83
2018-09-21T16:04:25.338Z,100523.09
2018-09-21T16:06:55.567Z,100514.22
2018-09-21T16:09:25.811Z,100516.75
2018-09-21T16:11:56.059Z,100523.38
2018-09-21T16:14:26.298Z,100522.95
2018-09-21T16:16:56.600Z,100522.83
2018-09-21T16:19:26.784Z,100513.60
2018-09-21T16:21:57.006Z,100518.41
2018-09-21T16:24:27.217Z,100516.01
2018-09-21T16:26:57.395Z,100532.24
2018-09-21T16:29:27.567Z,100528.41
2018-09-21T16:31:57.679Z,100527.52
2018-09-21T16:34:27.803Z,100526.23
2018-09-21T16:36:57.953Z,100523.80
2018-09-21T16:39:28.305Z,100523.11
2018-09-21T16:41:58.376Z,100533.97
2018-09-21T16:44:28.497Z,100532.25
2018-09-21T16:46:59.485Z,100514.39
2018-09-21T16:49:32.894Z,100513.95
2018-09-21T16:52:05.052Z,100525.40
2018-09-21T16:54:35.413Z,100533.02
2018-09-21T16:57:07.638Z,100528.81
2018-09-21T16:59:39.035Z,100539.63
2018-09-21T17:02:19.975Z,100554.44
2018-09-21T17:04:52.090Z,100548.23
2018-09-21T17:07:23.797Z,100548.49
2018-09-21T17:09:53.945Z,100562.44
2018-09-21T17:12:24.083Z,100563.59
2018-09-21T17:14:54.264Z,100559.64
2018-09-21T17:17:24.488Z,100569.73
2018-09-21T17:19:54.810Z,100578.94
2018-09-21T17:22:25.022Z,100580.00
2018-09-21T17:24:55.317Z,100590.89
2018-09-21T17:27:25.489Z,100595.25
2018-09-21T17:29:55.572Z,100588.33
2018-09-21T17:32:25.669Z,100596.71
2018-09-21T17:34:55.748Z,100599.84
2018-09-21T17:37:25.933Z,100593.28
2018-09-21T17:39:56.031Z,100610.55
2018-09-21T17:42:26.259Z,100607.52
2018-09-21T17:44:56.452Z,100612.36
2018-09-21T17:47:26.604Z,100611.67
2018-09-21T17:49:56.865Z,100613.20
2018-09-21T17:52:27.020Z,100621.45
2018-09-21T17:54:57.194Z,100636.00
2018-09-21T17:57:27.464Z,100630.20
2018-09-21T17:59:57.595Z,100650.30
2018-09-21T18:02:27.763Z,100654.67
2018-09-21T18:04:57.984Z,100657.54
2018-09-21T18:07:28.115Z,100666.92
2018-09-21T18:09:58.224Z,100659.44
2018-09-21T18:12:28.363Z,100662.58
2018-09-21T18:14:58.500Z,100657.34
2018-09-21T18:17:28.668Z,100664.90
2018-09-21T18:19:58.798Z,100679.72
2018-09-21T18:22:28.964Z,100687.46
2018-09-21T18:24:59.268Z,100729.91
2018-09-21T18:27:29.562Z,100723.73
2018-09-21T18:29:59.910Z,100715.77
2018-09-21T18:32:30.100Z,100730.96
2018-09-21T18:35:00.356Z,100735.56
2018-09-21T18:37:30.617Z,100730.17
2018-09-21T18:40:01.480Z,100735.66
2018-09-21T18:42:31.745Z,100741.42
2018-09-21T18:45:01.955Z,100743.70
2018-09-21T18:47:32.166Z,100757.93
2018-09-21T18:50:02.447Z,100750.61
2018-09-21T18:52:32.604Z,100751.94
2018-09-21T18:55:02.727Z,100755.27
2018-09-21T18:57:32.813Z,100760.09
2018-09-21T19:00:03.050Z,100757.59
2018-09-21T19:02:33.136Z,100758.15
2018-09-21T19:05:03.399Z,100757.20
2018-09-21T19:07:33.609Z,100765.39
2018-09-21T19:10:03.863Z,100772.28
2018-09-21T19:12:34.063Z,100774.56
2018-09-21T19:15:04.225Z,100776.14
2018-09-21T19:17:34.546Z,100786.70
2018-09-21T19:20:07.843Z,100779.42
2018-09-21T19:22:37.989Z,100788.19
2018-09-21T19:25:08.148Z,100790.99
2018-09-21T19:27:38.319Z,100804.08
2018-09-21T19:30:08.494Z,100812.63
2018-09-21T19:32:38.642Z,100820.06
2018-09-21T19:35:08.810Z,100827.69
2018-09-21T19:37:39.004Z,100842.66
2018-09-21T19:40:09.205Z,100839.88
2018-09-21T19:42:39.547Z,100836.48
2018-09-21T19:45:09.969Z,100809.78
2018-09-21T19:47:40.063Z,100821.47
2018-09-21T19:50:10.191Z,100808.94
2018-09-21T19:52:40.322Z,100820.88
2018-09-21T19:55:10.437Z,100820.72
2018-09-21T19:57:42.143Z,100828.12
2018-09-21T20:00:12.356Z,100816.19
2018-09-21T20:02:42.498Z,100820.64
2018-09-21T20:05:12.590Z,100830.17
2018-09-21T20:07:42.741Z,100836.42
2018-09-21T20:10:12.907Z,100835.40
2018-09-21T20:12:43.240Z,100837.39
2018-09-21T20:15:13.357Z,100841.85
2018-09-21T20:17:43.519Z,100840.61
2018-09-21T20:20:13.624Z,100833.97
2018-09-21T20:22:43.881Z,100838.50
2018-09-21T20:25:13.997Z,100829.78
2018-09-21T20:27:44.143Z,100839.95
2018-09-21T20:30:19.301Z,100835.76
2018-09-21T20:32:56.496Z,100837.23
2018-09-21T20:35:26.642Z,100836.11
2018-09-21T20:37:56.832Z,100840.52
2018-09-21T20:40:26.949Z,100838.22
2018-09-21T20:42:57.281Z,100844.66
2018-09-21T20:45:27.447Z,100852.20
2018-09-21T20:47:57.721Z,100846.16
2018-09-21T20:50:27.802Z,100852.24
2018-09-21T20:52:57.916Z,100842.29
2018-09-21T20:55:27.972Z,100837.52
2018-09-21T20:57:58.106Z,100855.81
2018-09-21T21:00:28.310Z,100848.30
2018-09-21T21:02:58.431Z,100853.87
2018-09-21T21:05:28.617Z,100850.00
2018-09-21T21:07:58.679Z,100845.65
2018-09-21T21:10:29.433Z,100853.50
2018-09-21T21:13:00.472Z,100857.20
2018-09-21T21:15:30.533Z,100858.59
2018-09-21T21:18:11.910Z,100867.44
2018-09-21T21:20:44.179Z,100865.66
2018-09-21T21:23:21.654Z,100899.36
2018-09-21T21:26:03.995Z,100930.26
2018-09-21T21:28:46.796Z,100933.13
2018-09-21T21:31:17.507Z,100933.58
2018-09-21T21:33:49.328Z,100931.14
2018-09-21T21:36:21.188Z,100925.84
2018-09-21T21:38:51.726Z,100929.67
2018-09-21T21:41:27.862Z,100920.67
2018-09-21T21:43:58.191Z,100929.75
2018-09-21T21:46:28.275Z,100935.13
2018-09-21T21:48:59.947Z,100945.37
2018-09-21T21:51:30.154Z,100937.19
2018-09-21T21:54:01.818Z,100939.07
2018-09-21T21:56:33.986Z,100947.06
2018-09-21T21:59:04.172Z,100952.91
2018-09-21T22:01:39.897Z,100957.19
2018-09-21T22:04:10.063Z,100951.03
2018-09-21T22:06:40.269Z,100955.51
2018-09-21T22:09:11.710Z,100960.13
2018-09-21T22:11:47.034Z,100965.55
2018-09-21T22:14:17.203Z,100969.23
2018-09-21T22:16:47.477Z,100955.51
2018-09-21T22:19:17.882Z,100958.64
2018-09-21T22:21:48.061Z,100961.08
2018-09-21T22:24:18.225Z,100979.44
2018-09-21T22:26:48.295Z,100979.63
2018-09-21T22:29:18.402Z,100989.34
2018-09-21T22:31:51.147Z,101002.84
2018-09-21T22:34:24.063Z,101005.28
2018-09-21T22:36:56.131Z,101009.67
2018-09-21T22:39:26.453Z,101042.04
2018-09-21T22:42:00.210Z,101042.05
2018-09-21T22:44:31.699Z,101057.34
2018-09-21T22:47:02.091Z,101058.77
2018-09-21T22:49:32.177Z,101040.03
2018-09-21T22:52:02.270Z,101046.86
2018-09-21T22:54:32.416Z,101059.12
2018-09-21T22:57:02.478Z,101070.70
2018-09-21T22:59:32.605Z,101061.91
2018-09-21T23:02:02.760Z,101067.30
2018-09-21T23:04:33.082Z,101065.66
2018-09-21T23:07:03.268Z,101059.80
2018-09-21T23:09:35.340Z,101070.48
2018-09-21T23:12:07.153Z,101090.16
2018-09-21T23:14:37.326Z,101091.02
2018-09-21T23:17:07.452Z,101117.86
2018-09-21T23:19:38.837Z,101095.88
2018-09-21T23:22:09.071Z,101076.63
2018-09-21T23:24:39.191Z,101077.80
2018-09-21T23:27:09.311Z,101081.58
2018-09-21T23:29:39.396Z,101088.03
2018-09-21T23:32:09.482Z,101086.72
2018-09-21T23:34:39.595Z,101102.44
2018-09-21T23:37:09.730Z,101107.28
2018-09-21T23:39:39.925Z,101108.94
2018-09-21T23:42:10.058Z,101134.63
2018-09-21T23:44:40.244Z,101137.06
2018-09-21T23:47:10.370Z,101155.00
2018-09-21T23:49:40.544Z,101154.16
2018-09-21T23:52:13.613Z,101124.75
2018-09-21T23:54:43.774Z,101121.30
2018-09-21T23:57:13.971Z,101128.09
2018-09-21T23:59:44.039Z,101146.17
